sensor_id;sensor_type;location;lat;lon;timestamp;pressure;altitude;pressure_sealevel;temperature;humidity
12486;BME280;6307;46.804;11.580;2023-02-07T00:01:22;-20891.38;;;1.32;45.90
12486;BME280;6307;46.804;11.580;2023-02-07T00:03:48;-20887.47;;;1.19;45.51
12486;BME280;6307;46.804;11.580;2023-02-07T00:06:35;-20887.00;;;1.18;45.77
12486;BME280;6307;46.804;11.580;2023-02-07T00:09:04;-20887.59;;;1.20;45.91
12486;BME280;6307;46.804;11.580;2023-02-07T00:11:31;-20885.94;;;1.14;48.09
12486;BME280;6307;46.804;11.580;2023-02-07T00:13:59;-20888.66;;;1.23;47.44
12486;BME280;6307;46.804;11.580;2023-02-07T00:16:25;-20889.88;;;1.27;45.09
12486;BME280;6307;46.804;11.580;2023-02-07T00:18:53;-20881.56;;;1.00;46.07
12486;BME280;6307;46.804;11.580;2023-02-07T00:21:21;-20880.66;;;0.97;46.70
12486;BME280;6307;46.804;11.580;2023-02-07T00:23:49;-20889.72;;;1.27;46.16
12486;BME280;6307;46.804;11.580;2023-02-07T00:26:18;-20886.56;;;1.16;45.93
12486;BME280;6307;46.804;11.580;2023-02-07T00:28:47;-20890.31;;;1.29;46.14
12486;BME280;6307;46.804;11.580;2023-02-07T00:31:26;-20888.97;;;1.24;45.99
12486;BME280;6307;46.804;11.580;2023-02-07T00:33:59;-20889.88;;;1.27;45.23
12486;BME280;6307;46.804;11.580;2023-02-07T00:36:31;-20888.06;;;1.21;47.43
12486;BME280;6307;46.804;11.580;2023-02-07T00:39:04;-20888.53;;;1.23;45.64
12486;BME280;6307;46.804;11.580;2023-02-07T00:41:41;-20883.53;;;1.06;46.04
12486;BME280;6307;46.804;11.580;2023-02-07T00:44:09;-20877.78;;;0.87;47.62
12486;BME280;6307;46.804;11.580;2023-02-07T00:46:36;-20880.22;;;0.95;46.18
12486;BME280;6307;46.804;11.580;2023-02-07T00:49:03;-20881.41;;;0.99;46.67
12486;BME280;6307;46.804;11.580;2023-02-07T00:51:31;-20891.22;;;1.32;49.62
12486;BME280;6307;46.804;11.580;2023-02-07T00:53:58;-20895.59;;;1.46;44.97
12486;BME280;6307;46.804;11.580;2023-02-07T00:56:27;-20895.16;;;1.45;45.03
12486;BME280;6307;46.804;11.580;2023-02-07T00:58:53;-20896.38;;;1.49;44.65
12486;BME280;6307;46.804;11.580;2023-02-07T01:01:21;-20893.78;;;1.40;44.07
12486;BME280;6307;46.804;11.580;2023-02-07T01:03:49;-20895.16;;;1.45;44.85
12486;BME280;6307;46.804;11.580;2023-02-07T01:06:15;-20890.31;;;1.29;44.71
12486;BME280;6307;46.804;11.580;2023-02-07T01:08:43;-20886.41;;;1.16;44.85
12486;BME280;6307;46.804;11.580;2023-02-07T01:11:11;-20888.38;;;1.22;44.75
12486;BME280;6307;46.804;11.580;2023-02-07T01:13:39;-20884.28;;;1.09;44.98
12486;BME280;6307;46.804;11.580;2023-02-07T01:16:17;-20883.84;;;1.07;45.58
12486;BME280;6307;46.804;11.580;2023-02-07T01:18:44;-20881.88;;;1.01;45.56
12486;BME280;6307;46.804;11.580;2023-02-07T01:21:15;-20868.13;;;0.55;46.45
12486;BME280;6307;46.804;11.580;2023-02-07T01:23:44;-20861.63;;;0.34;46.83
12486;BME280;6307;46.804;11.580;2023-02-07T01:26:10;-20865.13;;;0.45;46.76
12486;BME280;6307;46.804;11.580;2023-02-07T01:28:37;-20874.16;;;0.75;45.84
12486;BME280;6307;46.804;11.580;2023-02-07T01:31:08;-20875.69;;;0.80;45.77
12486;BME280;6307;46.804;11.580;2023-02-07T01:33:36;-20874.78;;;0.77;45.95
12486;BME280;6307;46.804;11.580;2023-02-07T01:36:10;-20878.09;;;0.88;45.90
12486;BME280;6307;46.804;11.580;2023-02-07T01:38:38;-20868.59;;;0.57;46.44
12486;BME280;6307;46.804;11.580;2023-02-07T01:41:06;-20863.59;;;0.40;47.42
12486;BME280;6307;46.804;11.580;2023-02-07T01:43:33;-20859.22;;;0.26;47.43
12486;BME280;6307;46.804;11.580;2023-02-07T01:45:59;-20861.63;;;0.34;47.44
12486;BME280;6307;46.804;11.580;2023-02-07T01:48:30;-20854.53;;;0.10;48.10
12486;BME280;6307;46.804;11.580;2023-02-07T01:51:02;-20864.66;;;0.44;47.69
12486;BME280;6307;46.804;11.580;2023-02-07T01:53:34;-20871.91;;;0.68;46.77
12486;BME280;6307;46.804;11.580;2023-02-07T01:56:04;-20870.84;;;0.64;46.88
12486;BME280;6307;46.804;11.580;2023-02-07T01:58:34;-20869.19;;;0.59;47.21
12486;BME280;6307;46.804;11.580;2023-02-07T02:01:06;-20871.00;;;0.65;46.94
12486;BME280;6307;46.804;11.580;2023-02-07T02:03:41;-20872.34;;;0.69;47.32
12486;BME280;6307;46.804;11.580;2023-02-07T02:06:09;-20869.50;;;0.60;47.51
12486;BME280;6307;46.804;11.580;2023-02-07T02:08:37;-20862.56;;;0.37;47.96
12486;BME280;6307;46.804;11.580;2023-02-07T02:20:28;-20863.00;;;0.38;48.77
12486;BME280;6307;46.804;11.580;2023-02-07T02:34:36;-20853.78;;;0.08;49.78
12486;BME280;6307;46.804;11.580;2023-02-07T02:37:39;-20852.88;;;0.05;49.45
12486;BME280;6307;46.804;11.580;2023-02-07T02:45:55;-20847.13;;;-0.14;51.42
12486;BME280;6307;46.804;11.580;2023-02-07T02:48:23;-20846.38;;;-0.17;51.40
12486;BME280;6307;46.804;11.580;2023-02-07T02:50:52;-20845.03;;;-0.21;51.39
12486;BME280;6307;46.804;11.580;2023-02-07T02:53:20;-20845.63;;;-0.19;51.51
12486;BME280;6307;46.804;11.580;2023-02-07T03:01:27;-20847.44;;;-0.13;51.53
12486;BME280;6307;46.804;11.580;2023-02-07T03:04:20;-20846.69;;;-0.16;51.28
12486;BME280;6307;46.804;11.580;2023-02-07T03:10:37;-20844.72;;;-0.22;51.97
12486;BME280;6307;46.804;11.580;2023-02-07T03:13:13;-20841.09;;;-0.34;52.19
12486;BME280;6307;46.804;11.580;2023-02-07T03:16:38;-20843.81;;;-0.25;52.71
12486;BME280;6307;46.804;11.580;2023-02-07T03:21:52;-20837.63;;;-0.45;52.36
12486;BME280;6307;46.804;11.580;2023-02-07T03:24:34;-20837.00;;;-0.47;52.29
12486;BME280;6307;46.804;11.580;2023-02-07T03:27:07;-20830.66;;;-0.68;53.38
12486;BME280;6307;46.804;11.580;2023-02-07T03:29:38;-20828.56;;;-0.75;53.81
12486;BME280;6307;46.804;11.580;2023-02-07T03:32:11;-20831.44;;;-0.66;53.75
12486;BME280;6307;46.804;11.580;2023-02-07T03:34:50;-20835.50;;;-0.52;52.64
12486;BME280;6307;46.804;11.580;2023-02-07T03:37:38;-20832.50;;;-0.62;52.98
12486;BME280;6307;46.804;11.580;2023-02-07T03:40:09;-20832.63;;;-0.62;52.76
12486;BME280;6307;46.804;11.580;2023-02-07T03:42:40;-20834.00;;;-0.57;53.09
12486;BME280;6307;46.804;11.580;2023-02-07T03:45:17;-20834.31;;;-0.56;53.28
12486;BME280;6307;46.804;11.580;2023-02-07T03:47:44;-20831.13;;;-0.67;53.36
12486;BME280;6307;46.804;11.580;2023-02-07T03:50:12;-20835.97;;;-0.51;52.97
12486;BME280;6307;46.804;11.580;2023-02-07T03:52:39;-20833.09;;;-0.60;53.43
12486;BME280;6307;46.804;11.580;2023-02-07T03:55:06;-20833.09;;;-0.60;54.53
12486;BME280;6307;46.804;11.580;2023-02-07T03:57:32;-20828.84;;;-0.74;54.78
12486;BME280;6307;46.804;11.580;2023-02-07T03:59:58;-20828.72;;;-0.75;55.13
12486;BME280;6307;46.804;11.580;2023-02-07T04:02:25;-20830.66;;;-0.68;53.75
12486;BME280;6307;46.804;11.580;2023-02-07T04:04:51;-20829.31;;;-0.73;53.75
12486;BME280;6307;46.804;11.580;2023-02-07T04:07:17;-20828.72;;;-0.75;54.83
12486;BME280;6307;46.804;11.580;2023-02-07T04:09:43;-20820.69;;;-1.01;56.07
12486;BME280;6307;46.804;11.580;2023-02-07T04:12:09;-20822.50;;;-0.95;55.85
12486;BME280;6307;46.804;11.580;2023-02-07T04:14:35;-20820.25;;;-1.03;56.56
12486;BME280;6307;46.804;11.580;2023-02-07T04:17:01;-20822.97;;;-0.94;56.75
12486;BME280;6307;46.804;11.580;2023-02-07T04:19:27;-20817.81;;;-1.11;56.45
12486;BME280;6307;46.804;11.580;2023-02-07T04:21:54;-20819.50;;;-1.05;55.84
12486;BME280;6307;46.804;11.580;2023-02-07T04:24:20;-20824.19;;;-0.90;56.00
12486;BME280;6307;46.804;11.580;2023-02-07T04:26:46;-20818.13;;;-1.10;56.03
12486;BME280;6307;46.804;11.580;2023-02-07T04:29:12;-20812.09;;;-1.30;55.73
12486;BME280;6307;46.804;11.580;2023-02-07T04:31:38;-20814.50;;;-1.22;54.89
12486;BME280;6307;46.804;11.580;2023-02-07T04:34:06;-20817.38;;;-1.12;55.26
12486;BME280;6307;46.804;11.580;2023-02-07T04:36:34;-20811.03;;;-1.33;55.94
12486;BME280;6307;46.804;11.580;2023-02-07T04:39:00;-20816.00;;;-1.17;55.69
12486;BME280;6307;46.804;11.580;2023-02-07T04:41:27;-20811.94;;;-1.30;57.20
12486;BME280;6307;46.804;11.580;2023-02-07T04:43:53;-20808.00;;;-1.43;56.92
12486;BME280;6307;46.804;11.580;2023-02-07T04:46:19;-20804.53;;;-1.55;57.01
12486;BME280;6307;46.804;11.580;2023-02-07T04:48:45;-20809.38;;;-1.39;56.24
12486;BME280;6307;46.804;11.580;2023-02-07T04:51:15;-20811.78;;;-1.31;55.98
12486;BME280;6307;46.804;11.580;2023-02-07T04:53:41;-20808.44;;;-1.42;56.01
12486;BME280;6307;46.804;11.580;2023-02-07T04:56:07;-20807.53;;;-1.45;55.15
12486;BME280;6307;46.804;11.580;2023-02-07T04:58:34;-20814.19;;;-1.23;55.21
12486;BME280;6307;46.804;11.580;2023-02-07T05:01:00;-20816.63;;;-1.15;54.41
12486;BME280;6307;46.804;11.580;2023-02-07T05:03:26;-20818.28;;;-1.09;53.42
12486;BME280;6307;46.804;11.580;2023-02-07T05:05:53;-20813.59;;;-1.25;53.90
12486;BME280;6307;46.804;11.580;2023-02-07T05:08:19;-20816.31;;;-1.16;54.03
12486;BME280;6307;46.804;11.580;2023-02-07T05:10:46;-20816.91;;;-1.14;54.73
12486;BME280;6307;46.804;11.580;2023-02-07T05:13:20;-20813.59;;;-1.25;54.49
12486;BME280;6307;46.804;11.580;2023-02-07T05:15:46;-20808.00;;;-1.43;55.27
12486;BME280;6307;46.804;11.580;2023-02-07T05:18:13;-20810.25;;;-1.36;55.15
12486;BME280;6307;46.804;11.580;2023-02-07T05:20:39;-20813.59;;;-1.25;54.49
12486;BME280;6307;46.804;11.580;2023-02-07T05:23:06;-20810.41;;;-1.35;54.72
12486;BME280;6307;46.804;11.580;2023-02-07T05:25:32;-20803.91;;;-1.57;56.02
12486;BME280;6307;46.804;11.580;2023-02-07T05:27:58;-20812.09;;;-1.30;55.32
12486;BME280;6307;46.804;11.580;2023-02-07T05:30:25;-20816.00;;;-1.17;53.99
12486;BME280;6307;46.804;11.580;2023-02-07T05:32:51;-20815.72;;;-1.18;54.13
12486;BME280;6307;46.804;11.580;2023-02-07T05:35:36;-20808.00;;;-1.43;54.60
12486;BME280;6307;46.804;11.580;2023-02-07T05:38:07;-20811.31;;;-1.32;55.44
12486;BME280;6307;46.804;11.580;2023-02-07T05:40:37;-20812.53;;;-1.28;54.55
12486;BME280;6307;46.804;11.580;2023-02-07T05:43:04;-20812.53;;;-1.28;54.53
12486;BME280;6307;46.804;11.580;2023-02-07T05:45:30;-20807.69;;;-1.44;55.49
12486;BME280;6307;46.804;11.580;2023-02-07T05:47:57;-20803.31;;;-1.59;56.28
12486;BME280;6307;46.804;11.580;2023-02-07T05:50:24;-20800.59;;;-1.68;57.08
12486;BME280;6307;46.804;11.580;2023-02-07T05:52:50;-20803.63;;;-1.58;57.41
12486;BME280;6307;46.804;11.580;2023-02-07T05:55:17;-20805.56;;;-1.51;56.38
12486;BME280;6307;46.804;11.580;2023-02-07T05:57:44;-20804.53;;;-1.55;56.66
12486;BME280;6307;46.804;11.580;2023-02-07T06:00:12;-20799.53;;;-1.71;57.17
12486;BME280;6307;46.804;11.580;2023-02-07T06:02:41;-20785.16;;;-2.19;58.71
12486;BME280;6307;46.804;11.580;2023-02-07T06:05:12;-20784.84;;;-2.20;60.10
12486;BME280;6307;46.804;11.580;2023-02-07T06:07:40;-20786.84;;;-2.13;60.17
12486;BME280;6307;46.804;11.580;2023-02-07T06:10:08;-20788.50;;;-2.08;59.81
12486;BME280;6307;46.804;11.580;2023-02-07T06:12:35;-20788.34;;;-2.08;59.57
12486;BME280;6307;46.804;11.580;2023-02-07T06:15:02;-20787.28;;;-2.12;60.22
12486;BME280;6307;46.804;11.580;2023-02-07T06:17:28;-20789.25;;;-2.05;59.82
12486;BME280;6307;46.804;11.580;2023-02-07T06:19:55;-20788.19;;;-2.09;60.11
12486;BME280;6307;46.804;11.580;2023-02-07T06:22:21;-20785.31;;;-2.18;59.94
12486;BME280;6307;46.804;11.580;2023-02-07T06:24:47;-20787.59;;;-2.11;60.03
12486;BME280;6307;46.804;11.580;2023-02-07T06:27:13;-20791.06;;;-1.99;59.73
12486;BME280;6307;46.804;11.580;2023-02-07T06:29:39;-20787.28;;;-2.12;59.53
12486;BME280;6307;46.804;11.580;2023-02-07T06:32:05;-20790.31;;;-2.02;58.67
12486;BME280;6307;46.804;11.580;2023-02-07T06:34:31;-20788.34;;;-2.08;58.43
12486;BME280;6307;46.804;11.580;2023-02-07T06:36:57;-20787.13;;;-2.12;59.19
12486;BME280;6307;46.804;11.580;2023-02-07T06:39:24;-20784.72;;;-2.20;59.07
12486;BME280;6307;46.804;11.580;2023-02-07T06:41:50;-20785.78;;;-2.17;58.45
12486;BME280;6307;46.804;11.580;2023-02-07T06:44:16;-20787.44;;;-2.11;58.22
12486;BME280;6307;46.804;11.580;2023-02-07T06:46:42;-20788.03;;;-2.09;58.88
12486;BME280;6307;46.804;11.580;2023-02-07T06:49:09;-20788.19;;;-2.09;59.24
12486;BME280;6307;46.804;11.580;2023-02-07T06:51:36;-20781.69;;;-2.30;59.07
12486;BME280;6307;46.804;11.580;2023-02-07T06:54:02;-20782.75;;;-2.27;60.08
12486;BME280;6307;46.804;11.580;2023-02-07T06:56:32;-20783.66;;;-2.24;60.83
12486;BME280;6307;46.804;11.580;2023-02-07T06:58:58;-20784.84;;;-2.20;60.34
12486;BME280;6307;46.804;11.580;2023-02-07T07:01:24;-20781.22;;;-2.32;59.96
12486;BME280;6307;46.804;11.580;2023-02-07T07:03:50;-20784.84;;;-2.20;59.18
12486;BME280;6307;46.804;11.580;2023-02-07T07:06:16;-20786.69;;;-2.14;58.82
12486;BME280;6307;46.804;11.580;2023-02-07T07:08:43;-20781.69;;;-2.30;59.23
12486;BME280;6307;46.804;11.580;2023-02-07T07:11:09;-20787.28;;;-2.12;58.40
12486;BME280;6307;46.804;11.580;2023-02-07T07:13:35;-20782.13;;;-2.29;60.03
12486;BME280;6307;46.804;11.580;2023-02-07T07:16:01;-20782.91;;;-2.26;60.10
12486;BME280;6307;46.804;11.580;2023-02-07T07:18:27;-20785.78;;;-2.17;59.78
12486;BME280;6307;46.804;11.580;2023-02-07T07:20:54;-20775.94;;;-2.49;61.17
12486;BME280;6307;46.804;11.580;2023-02-07T07:23:21;-20782.00;;;-2.29;60.04
12486;BME280;6307;46.804;11.580;2023-02-07T07:25:47;-20785.91;;;-2.16;59.00
12486;BME280;6307;46.804;11.580;2023-02-07T07:28:13;-20780.94;;;-2.33;58.36
12486;BME280;6307;46.804;11.580;2023-02-07T07:30:39;-20787.44;;;-2.11;58.65
12486;BME280;6307;46.804;11.580;2023-02-07T07:33:06;-20789.25;;;-2.05;57.45
12486;BME280;6307;46.804;11.580;2023-02-07T07:35:32;-20796.22;;;-1.82;56.39
12486;BME280;6307;46.804;11.580;2023-02-07T07:37:58;-20791.53;;;-1.98;57.04
12486;BME280;6307;46.804;11.580;2023-02-07T07:40:24;-20796.22;;;-1.82;57.20
12486;BME280;6307;46.804;11.580;2023-02-07T07:42:50;-20784.72;;;-2.20;57.34
12486;BME280;6307;46.804;11.580;2023-02-07T07:45:16;-20790.75;;;-2.00;56.70
12486;BME280;6307;46.804;11.580;2023-02-07T07:47:43;-20792.28;;;-1.95;55.47
12486;BME280;6307;46.804;11.580;2023-02-07T07:50:10;-20796.50;;;-1.81;56.08
12486;BME280;6307;46.804;11.580;2023-02-07T07:52:36;-20799.22;;;-1.72;56.02
12486;BME280;6307;46.804;11.580;2023-02-07T07:55:02;-20796.66;;;-1.81;56.02
12486;BME280;6307;46.804;11.580;2023-02-07T07:57:29;-20794.84;;;-1.87;55.54
12486;BME280;6307;46.804;11.580;2023-02-07T07:59:55;-20794.09;;;-1.89;55.51
12486;BME280;6307;46.804;11.580;2023-02-07T08:02:21;-20813.13;;;-1.26;54.85
12486;BME280;6307;46.804;11.580;2023-02-07T08:04:49;-20810.56;;;-1.35;52.71
12486;BME280;6307;46.804;11.580;2023-02-07T08:07:15;-20812.09;;;-1.30;54.13
12486;BME280;6307;46.804;11.580;2023-02-07T08:09:41;-20804.97;;;-1.53;54.30
12486;BME280;6307;46.804;11.580;2023-02-07T08:12:08;-20806.34;;;-1.49;54.81
12486;BME280;6307;46.804;11.580;2023-02-07T08:14:34;-20801.19;;;-1.66;55.21
12486;BME280;6307;46.804;11.580;2023-02-07T08:17:00;-20795.91;;;-1.83;56.98
12486;BME280;6307;46.804;11.580;2023-02-07T08:19:26;-20801.66;;;-1.64;55.16
12486;BME280;6307;46.804;11.580;2023-02-07T08:21:52;-20800.75;;;-1.67;55.04
12486;BME280;6307;46.804;11.580;2023-02-07T08:24:18;-20800.28;;;-1.69;54.49
12486;BME280;6307;46.804;11.580;2023-02-07T08:26:44;-20794.09;;;-1.89;55.57
12486;BME280;6307;46.804;11.580;2023-02-07T08:29:11;-20800.59;;;-1.68;54.97
12486;BME280;6307;46.804;11.580;2023-02-07T08:31:37;-20798.78;;;-1.74;54.14
12486;BME280;6307;46.804;11.580;2023-02-07T08:34:03;-20807.25;;;-1.46;53.21
12486;BME280;6307;46.804;11.580;2023-02-07T08:36:30;-20810.56;;;-1.35;52.68
12486;BME280;6307;46.804;11.580;2023-02-07T08:38:57;-20810.25;;;-1.36;51.83
12486;BME280;6307;46.804;11.580;2023-02-07T08:41:23;-20808.91;;;-1.40;52.96
12486;BME280;6307;46.804;11.580;2023-02-07T08:43:49;-20813.75;;;-1.24;52.30
12486;BME280;6307;46.804;11.580;2023-02-07T08:46:15;-20810.25;;;-1.36;52.46
12486;BME280;6307;46.804;11.580;2023-02-07T08:48:41;-20817.22;;;-1.13;51.81
12486;BME280;6307;46.804;11.580;2023-02-07T08:51:08;-20820.41;;;-1.02;51.74
12486;BME280;6307;46.804;11.580;2023-02-07T08:53:35;-20813.28;;;-1.26;51.67
12486;BME280;6307;46.804;11.580;2023-02-07T08:56:01;-20815.72;;;-1.18;51.94
12486;BME280;6307;46.804;11.580;2023-02-07T08:58:28;-20816.63;;;-1.15;50.87
12486;BME280;6307;46.804;11.580;2023-02-07T09:00:54;-20821.16;;;-1.00;50.38
12486;BME280;6307;46.804;11.580;2023-02-07T09:03:20;-20824.19;;;-0.90;50.05
12486;BME280;6307;46.804;11.580;2023-02-07T09:05:46;-20826.75;;;-0.81;49.77
12486;BME280;6307;46.804;11.580;2023-02-07T09:08:12;-20825.38;;;-0.86;49.87
12486;BME280;6307;46.804;11.580;2023-02-07T09:10:38;-20821.91;;;-0.97;50.30
12486;BME280;6307;46.804;11.580;2023-02-07T09:13:05;-20823.13;;;-0.93;50.68
12486;BME280;6307;46.804;11.580;2023-02-07T09:15:31;-20822.81;;;-0.94;50.97
12486;BME280;6307;46.804;11.580;2023-02-07T09:17:57;-20827.34;;;-0.79;50.13
12486;BME280;6307;46.804;11.580;2023-02-07T09:20:23;-20827.03;;;-0.80;49.95
12486;BME280;6307;46.804;11.580;2023-02-07T09:22:49;-20827.34;;;-0.79;49.71
12486;BME280;6307;46.804;11.580;2023-02-07T09:25:36;-20835.97;;;-0.51;49.29
12486;BME280;6307;46.804;11.580;2023-02-07T09:28:03;-20834.59;;;-0.55;49.91
12486;BME280;6307;46.804;11.580;2023-02-07T09:30:29;-20836.72;;;-0.48;48.09
12486;BME280;6307;46.804;11.580;2023-02-07T09:32:56;-20837.00;;;-0.47;49.49
12486;BME280;6307;46.804;11.580;2023-02-07T09:35:22;-20836.13;;;-0.50;48.46
12486;BME280;6307;46.804;11.580;2023-02-07T09:37:52;-20839.44;;;-0.39;49.50
12486;BME280;6307;46.804;11.580;2023-02-07T09:40:20;-20842.91;;;-0.28;48.83
12486;BME280;6307;46.804;11.580;2023-02-07T09:42:54;-20843.97;;;-0.24;47.27
12486;BME280;6307;46.804;11.580;2023-02-07T09:45:45;-20849.25;;;-0.07;46.70
12486;BME280;6307;46.804;11.580;2023-02-07T09:48:22;-20850.75;;;-0.02;47.05
12486;BME280;6307;46.804;11.580;2023-02-07T09:50:53;-20847.00;;;-0.14;48.37
12486;BME280;6307;46.804;11.580;2023-02-07T09:53:38;-20850.16;;;-0.04;46.90
12486;BME280;6307;46.804;11.580;2023-02-07T09:56:08;-20851.38;;;0.00;48.61
12486;BME280;6307;46.804;11.580;2023-02-07T09:59:35;-20849.88;;;-0.05;47.24
12486;BME280;6307;46.804;11.580;2023-02-07T10:02:18;-20853.03;;;0.05;47.19
12486;BME280;6307;46.804;11.580;2023-02-07T10:05:03;-20856.06;;;0.15;48.08
12486;BME280;6307;46.804;11.580;2023-02-07T10:07:45;-20855.59;;;0.14;47.26
12486;BME280;6307;46.804;11.580;2023-02-07T10:10:17;-20855.91;;;0.15;47.77
12486;BME280;6307;46.804;11.580;2023-02-07T10:22:29;-20865.41;;;0.46;46.65
12486;BME280;6307;46.804;11.580;2023-02-07T10:30:33;-20864.50;;;0.43;46.58
12486;BME280;6307;46.804;11.580;2023-02-07T10:33:17;-20860.75;;;0.31;45.22
12486;BME280;6307;46.804;11.580;2023-02-07T10:35:47;-20864.06;;;0.42;45.61
12486;BME280;6307;46.804;11.580;2023-02-07T10:38:28;-20864.38;;;0.43;46.49
12486;BME280;6307;46.804;11.580;2023-02-07T10:41:33;-20872.34;;;0.69;46.10
12486;BME280;6307;46.804;11.580;2023-02-07T10:44:03;-20871.59;;;0.67;46.42
12486;BME280;6307;46.804;11.580;2023-02-07T10:46:31;-20871.59;;;0.67;46.98
12486;BME280;6307;46.804;11.580;2023-02-07T10:48:59;-20870.41;;;0.63;44.02
12486;BME280;6307;46.804;11.580;2023-02-07T10:51:38;-20873.28;;;0.72;43.65
12486;BME280;6307;46.804;11.580;2023-02-07T10:54:26;-20873.56;;;0.73;42.45
12486;BME280;6307;46.804;11.580;2023-02-07T10:56:56;-20875.69;;;0.80;43.18
12486;BME280;6307;46.804;11.580;2023-02-07T10:59:40;-20876.91;;;0.84;44.52
12486;BME280;6307;46.804;11.580;2023-02-07T11:05:01;-20881.88;;;1.01;44.20
12486;BME280;6307;46.804;11.580;2023-02-07T11:07:30;-20880.38;;;0.96;44.16
12486;BME280;6307;46.804;11.580;2023-02-07T11:10:28;-20883.53;;;1.06;43.87
12486;BME280;6307;46.804;11.580;2023-02-07T11:13:02;-20883.97;;;1.08;43.75
12486;BME280;6307;46.804;11.580;2023-02-07T11:15:45;-20882.47;;;1.03;43.34
12486;BME280;6307;46.804;11.580;2023-02-07T11:21:03;-20889.28;;;1.25;42.57
12486;BME280;6307;46.804;11.580;2023-02-07T11:23:30;-20892.13;;;1.35;44.44
12486;BME280;6307;46.804;11.580;2023-02-07T11:25:57;-20896.06;;;1.48;46.84
12486;BME280;6307;46.804;11.580;2023-02-07T11:28:27;-20892.00;;;1.34;45.22
12486;BME280;6307;46.804;11.580;2023-02-07T11:31:16;-20896.50;;;1.49;44.73
12486;BME280;6307;46.804;11.580;2023-02-07T11:33:47;-20894.41;;;1.42;45.61
12486;BME280;6307;46.804;11.580;2023-02-07T11:38:57;-20903.91;;;1.74;50.37
12486;BME280;6307;46.804;11.580;2023-02-07T11:41:27;-20909.78;;;1.93;43.23
12486;BME280;6307;46.804;11.580;2023-02-07T11:44:13;-20906.63;;;1.83;42.41
12486;BME280;6307;46.804;11.580;2023-02-07T11:46:45;-20910.84;;;1.97;41.48
12486;BME280;6307;46.804;11.580;2023-02-07T11:51:55;-20908.13;;;1.88;43.68
12486;BME280;6307;46.804;11.580;2023-02-07T11:54:24;-20907.69;;;1.86;44.33
12486;BME280;6307;46.804;11.580;2023-02-07T11:56:59;-20909.19;;;1.91;44.68
12486;BME280;6307;46.804;11.580;2023-02-07T11:59:26;-20906.63;;;1.83;42.96
12486;BME280;6307;46.804;11.580;2023-02-07T12:01:56;-20911.00;;;1.97;46.24
12486;BME280;6307;46.804;11.580;2023-02-07T12:04:34;-20916.28;;;2.15;47.07
12486;BME280;6307;46.804;11.580;2023-02-07T12:07:11;-20917.78;;;2.20;45.91
12486;BME280;6307;46.804;11.580;2023-02-07T12:15:09;-20921.25;;;2.31;44.77
12486;BME280;6307;46.804;11.580;2023-02-07T12:26:29;-20922.78;;;2.36;41.47
12486;BME280;6307;46.804;11.580;2023-02-07T12:29:32;-20926.38;;;2.48;42.50
12486;BME280;6307;46.804;11.580;2023-02-07T12:32:13;-20927.75;;;2.53;42.12
12486;BME280;6307;46.804;11.580;2023-02-07T12:35:13;-20928.66;;;2.56;42.12
12486;BME280;6307;46.804;11.580;2023-02-07T12:40:51;-20927.28;;;2.51;39.56
12486;BME280;6307;46.804;11.580;2023-02-07T12:43:25;-20928.66;;;2.56;40.68
12486;BME280;6307;46.804;11.580;2023-02-07T12:56:59;-20925.34;;;2.45;43.73
12486;BME280;6307;46.804;11.580;2023-02-07T13:05:37;-20922.47;;;2.35;44.06
12486;BME280;6307;46.804;11.580;2023-02-07T13:14:46;-20933.63;;;2.72;40.76
12486;BME280;6307;46.804;11.580;2023-02-07T13:20:19;-20936.19;;;2.81;37.46
12486;BME280;6307;46.804;11.580;2023-02-07T13:23:00;-20940.72;;;2.96;38.43
12486;BME280;6307;46.804;11.580;2023-02-07T13:25:33;-20940.88;;;2.96;38.05
12486;BME280;6307;46.804;11.580;2023-02-07T13:28:12;-20940.72;;;2.96;40.17
12486;BME280;6307;46.804;11.580;2023-02-07T13:30:47;-20935.59;;;2.79;39.82
12486;BME280;6307;46.804;11.580;2023-02-07T13:33:27;-20935.13;;;2.77;41.45
12486;BME280;6307;46.804;11.580;2023-02-07T13:35:58;-20931.97;;;2.67;41.95
12486;BME280;6307;46.804;11.580;2023-02-07T13:53:34;-20939.06;;;2.90;43.07
12486;BME280;6307;46.804;11.580;2023-02-07T13:56:29;-20932.72;;;2.69;43.73
12486;BME280;6307;46.804;11.580;2023-02-07T13:59:37;-20936.50;;;2.82;38.54
12486;BME280;6307;46.804;11.580;2023-02-07T14:02:13;-20939.19;;;2.91;38.51
12486;BME280;6307;46.804;11.580;2023-02-07T14:05:08;-20939.06;;;2.90;39.75
12486;BME280;6307;46.804;11.580;2023-02-07T14:07:40;-20936.19;;;2.81;43.30
12486;BME280;6307;46.804;11.580;2023-02-07T14:13:04;-20936.03;;;2.80;39.36
12486;BME280;6307;46.804;11.580;2023-02-07T14:18:04;-20932.88;;;2.70;41.65
12486;BME280;6307;46.804;11.580;2023-02-07T14:20:59;-20927.75;;;2.53;42.25
12486;BME280;6307;46.804;11.580;2023-02-07T14:34:31;-20933.63;;;2.72;44.75
12486;BME280;6307;46.804;11.580;2023-02-07T14:43:16;-20933.78;;;2.73;42.80
12486;BME280;6307;46.804;11.580;2023-02-07T14:48:52;-20930.00;;;2.60;44.95
12486;BME280;6307;46.804;11.580;2023-02-07T14:54:17;-20931.97;;;2.67;43.63
12486;BME280;6307;46.804;11.580;2023-02-07T14:57:05;-20928.34;;;2.55;42.62
12486;BME280;6307;46.804;11.580;2023-02-07T14:59:59;-20926.69;;;2.49;41.66
12486;BME280;6307;46.804;11.580;2023-02-07T15:10:29;-20916.72;;;2.16;42.76
12486;BME280;6307;46.804;11.580;2023-02-07T15:12:58;-20917.47;;;2.19;44.93
12486;BME280;6307;46.804;11.580;2023-02-07T15:15:26;-20921.41;;;2.32;45.14
12486;BME280;6307;46.804;11.580;2023-02-07T15:17:57;-20922.31;;;2.35;42.83
12486;BME280;6307;46.804;11.580;2023-02-07T15:20:31;-20923.53;;;2.39;43.59
12486;BME280;6307;46.804;11.580;2023-02-07T15:23:01;-20920.50;;;2.29;44.79
12486;BME280;6307;46.804;11.580;2023-02-07T15:25:28;-20916.13;;;2.14;44.74
12486;BME280;6307;46.804;11.580;2023-02-07T15:28:06;-20915.38;;;2.12;42.17
12486;BME280;6307;46.804;11.580;2023-02-07T15:33:54;-20919.44;;;2.25;43.98
12486;BME280;6307;46.804;11.580;2023-02-07T15:39:11;-20920.97;;;2.30;40.85
12486;BME280;6307;46.804;11.580;2023-02-07T15:41:38;-20916.44;;;2.15;42.13
12486;BME280;6307;46.804;11.580;2023-02-07T15:46:55;-20909.50;;;1.92;42.92
12486;BME280;6307;46.804;11.580;2023-02-07T15:49:25;-20910.69;;;1.96;41.70
12486;BME280;6307;46.804;11.580;2023-02-07T15:52:41;-20915.81;;;2.13;41.85
12486;BME280;6307;46.804;11.580;2023-02-07T15:54:49;-20911.31;;;1.98;44.32
12486;BME280;6307;46.804;11.580;2023-02-07T15:57:32;-20906.16;;;1.81;44.54
12486;BME280;6307;46.804;11.580;2023-02-07T16:00:03;-20902.84;;;1.70;43.84
12486;BME280;6307;46.804;11.580;2023-02-07T16:02:41;-20905.13;;;1.78;42.62
12486;BME280;6307;46.804;11.580;2023-02-07T16:05:28;-20906.47;;;1.82;43.92